sensor_id;sensor_type;location;lat;lon;timestamp;P1;durP1;ratioP1;P2;durP2;ratioP2
43883;SDS011;71973;52.018;5.810;2023-09-19T00:00:36;4.38;;;1.60;;
43883;SDS011;71973;52.018;5.810;2023-09-19T00:03:02;6.32;;;1.60;;
43883;SDS011;71973;52.018;5.810;2023-09-19T00:05:29;5.57;;;1.98;;
43883;SDS011;71973;52.018;5.810;2023-09-19T00:07:56;4.60;;;1.73;;
43883;SDS011;71973;52.018;5.810;2023-09-19T00:10:26;5.15;;;1.75;;
43883;SDS011;71973;52.018;5.810;2023-09-19T00:12:55;3.15;;;1.50;;
43883;SDS011;71973;52.018;5.810;2023-09-19T00:15:23;4.68;;;2.20;;
43883;SDS011;71973;52.018;5.810;2023-09-19T00:17:49;6.80;;;1.80;;
43883;SDS011;71973;52.018;5.810;2023-09-19T00:20:17;3.50;;;1.40;;
43883;SDS011;71973;52.018;5.810;2023-09-19T00:22:43;6.60;;;2.00;;
43883;SDS011;71973;52.018;5.810;2023-09-19T00:25:10;3.63;;;1.40;;
43883;SDS011;71973;52.018;5.810;2023-09-19T00:27:37;6.72;;;1.85;;
43883;SDS011;71973;52.018;5.810;2023-09-19T00:30:10;4.18;;;1.58;;
43883;SDS011;71973;52.018;5.810;2023-09-19T00:32:39;5.13;;;1.70;;
43883;SDS011;71973;52.018;5.810;2023-09-19T00:35:05;4.78;;;1.40;;
43883;SDS011;71973;52.018;5.810;2023-09-19T00:37:33;3.78;;;1.30;;
43883;SDS011;71973;52.018;5.810;2023-09-19T00:39:59;4.00;;;1.27;;
43883;SDS011;71973;52.018;5.810;2023-09-19T00:42:25;6.30;;;2.00;;
43883;SDS011;71973;52.018;5.810;2023-09-19T00:44:51;4.32;;;1.50;;
43883;SDS011;71973;52.018;5.810;2023-09-19T00:47:17;6.63;;;1.58;;
43883;SDS011;71973;52.018;5.810;2023-09-19T00:49:44;5.68;;;1.63;;
43883;SDS011;71973;52.018;5.810;2023-09-19T00:52:17;4.15;;;1.48;;
43883;SDS011;71973;52.018;5.810;2023-09-19T00:54:45;4.95;;;1.83;;
43883;SDS011;71973;52.018;5.810;2023-09-19T00:57:11;2.55;;;1.20;;
43883;SDS011;71973;52.018;5.810;2023-09-19T00:59:37;3.67;;;1.50;;
43883;SDS011;71973;52.018;5.810;2023-09-19T01:02:03;6.47;;;1.67;;
43883;SDS011;71973;52.018;5.810;2023-09-19T01:04:29;5.68;;;1.67;;
43883;SDS011;71973;52.018;5.810;2023-09-19T01:06:56;3.40;;;1.33;;
43883;SDS011;71973;52.018;5.810;2023-09-19T01:09:22;3.38;;;1.60;;
43883;SDS011;71973;52.018;5.810;2023-09-19T01:11:49;4.45;;;1.70;;
43883;SDS011;71973;52.018;5.810;2023-09-19T01:14:22;3.55;;;1.60;;
43883;SDS011;71973;52.018;5.810;2023-09-19T01:16:55;5.60;;;1.85;;
43883;SDS011;71973;52.018;5.810;2023-09-19T01:22:07;4.30;;;1.75;;
43883;SDS011;71973;52.018;5.810;2023-09-19T01:24:53;4.97;;;1.48;;
43883;SDS011;71973;52.018;5.810;2023-09-19T01:29:47;3.58;;;1.15;;
43883;SDS011;71973;52.018;5.810;2023-09-19T01:32:18;4.38;;;1.48;;
43883;SDS011;71973;52.018;5.810;2023-09-19T01:34:48;2.75;;;1.35;;
43883;SDS011;71973;52.018;5.810;2023-09-19T01:37:15;3.17;;;1.33;;
43883;SDS011;71973;52.018;5.810;2023-09-19T01:39:45;6.30;;;1.58;;
43883;SDS011;71973;52.018;5.810;2023-09-19T01:47:32;4.43;;;1.45;;
43883;SDS011;71973;52.018;5.810;2023-09-19T01:50:05;3.25;;;1.40;;
43883;SDS011;71973;52.018;5.810;2023-09-19T01:52:35;3.35;;;1.20;;
43883;SDS011;71973;52.018;5.810;2023-09-19T01:55:05;3.38;;;1.20;;
43883;SDS011;71973;52.018;5.810;2023-09-19T01:57:36;3.88;;;1.45;;
43883;SDS011;71973;52.018;5.810;2023-09-19T02:00:07;5.30;;;1.40;;
43883;SDS011;71973;52.018;5.810;2023-09-19T02:02:36;3.90;;;1.75;;
43883;SDS011;71973;52.018;5.810;2023-09-19T02:05:03;5.57;;;1.92;;
43883;SDS011;71973;52.018;5.810;2023-09-19T02:09:57;4.00;;;1.27;;
43883;SDS011;71973;52.018;5.810;2023-09-19T02:12:24;7.13;;;1.83;;
43883;SDS011;71973;52.018;5.810;2023-09-19T02:14:50;4.80;;;1.60;;
43883;SDS011;71973;52.018;5.810;2023-09-19T02:17:16;5.40;;;1.85;;
43883;SDS011;71973;52.018;5.810;2023-09-19T02:19:42;3.22;;;1.40;;
43883;SDS011;71973;52.018;5.810;2023-09-19T02:22:08;4.72;;;1.40;;
43883;SDS011;71973;52.018;5.810;2023-09-19T02:24:35;3.50;;;1.55;;
43883;SDS011;71973;52.018;5.810;2023-09-19T02:27:01;4.20;;;1.42;;
43883;SDS011;71973;52.018;5.810;2023-09-19T02:29:32;3.83;;;1.52;;
43883;SDS011;71973;52.018;5.810;2023-09-19T02:31:59;5.82;;;1.65;;
43883;SDS011;71973;52.018;5.810;2023-09-19T02:34:27;4.30;;;1.85;;
43883;SDS011;71973;52.018;5.810;2023-09-19T02:36:53;4.35;;;1.55;;
43883;SDS011;71973;52.018;5.810;2023-09-19T02:39:20;4.28;;;1.60;;
43883;SDS011;71973;52.018;5.810;2023-09-19T02:41:46;5.70;;;1.60;;
43883;SDS011;71973;52.018;5.810;2023-09-19T02:44:12;7.22;;;1.77;;
43883;SDS011;71973;52.018;5.810;2023-09-19T02:46:39;6.07;;;1.70;;
43883;SDS011;71973;52.018;5.810;2023-09-19T02:49:05;4.18;;;1.90;;
43883;SDS011;71973;52.018;5.810;2023-09-19T02:51:31;4.85;;;1.88;;
43883;SDS011;71973;52.018;5.810;2023-09-19T02:53:58;5.03;;;1.90;;
43883;SDS011;71973;52.018;5.810;2023-09-19T02:56:24;4.25;;;1.58;;
43883;SDS011;71973;52.018;5.810;2023-09-19T02:58:50;8.82;;;2.28;;
43883;SDS011;71973;52.018;5.810;2023-09-19T03:01:16;5.43;;;1.95;;
43883;SDS011;71973;52.018;5.810;2023-09-19T03:03:43;6.30;;;1.73;;
43883;SDS011;71973;52.018;5.810;2023-09-19T03:06:10;5.38;;;1.67;;
43883;SDS011;71973;52.018;5.810;2023-09-19T03:08:37;4.70;;;1.75;;
43883;SDS011;71973;52.018;5.810;2023-09-19T03:11:04;4.40;;;1.60;;
43883;SDS011;71973;52.018;5.810;2023-09-19T03:13:31;4.55;;;1.50;;
43883;SDS011;71973;52.018;5.810;2023-09-19T03:15:57;6.95;;;2.22;;
43883;SDS011;71973;52.018;5.810;2023-09-19T03:18:23;4.72;;;1.80;;
43883;SDS011;71973;52.018;5.810;2023-09-19T03:20:54;5.78;;;1.83;;
43883;SDS011;71973;52.018;5.810;2023-09-19T03:23:20;5.60;;;1.77;;
43883;SDS011;71973;52.018;5.810;2023-09-19T03:25:46;5.80;;;1.90;;
43883;SDS011;71973;52.018;5.810;2023-09-19T03:28:13;7.28;;;2.10;;
43883;SDS011;71973;52.018;5.810;2023-09-19T03:30:40;6.35;;;1.85;;
43883;SDS011;71973;52.018;5.810;2023-09-19T03:35:33;6.82;;;2.30;;
43883;SDS011;71973;52.018;5.810;2023-09-19T03:37:59;3.33;;;1.35;;
43883;SDS011;71973;52.018;5.810;2023-09-19T03:40:25;4.60;;;1.60;;
43883;SDS011;71973;52.018;5.810;2023-09-19T03:42:51;6.22;;;1.77;;
43883;SDS011;71973;52.018;5.810;2023-09-19T03:45:17;4.68;;;1.55;;
43883;SDS011;71973;52.018;5.810;2023-09-19T03:47:43;6.35;;;2.05;;
43883;SDS011;71973;52.018;5.810;2023-09-19T03:50:12;6.53;;;2.08;;
43883;SDS011;71973;52.018;5.810;2023-09-19T03:52:40;6.13;;;2.20;;
43883;SDS011;71973;52.018;5.810;2023-09-19T03:55:07;5.00;;;1.52;;
43883;SDS011;71973;52.018;5.810;2023-09-19T03:57:34;5.13;;;1.58;;
43883;SDS011;71973;52.018;5.810;2023-09-19T04:02:27;6.93;;;2.20;;
43883;SDS011;71973;52.018;5.810;2023-09-19T04:04:58;3.63;;;1.58;;
43883;SDS011;71973;52.018;5.810;2023-09-19T04:07:24;4.15;;;1.83;;
43883;SDS011;71973;52.018;5.810;2023-09-19T04:09:53;7.43;;;1.95;;
43883;SDS011;71973;52.018;5.810;2023-09-19T04:12:20;5.15;;;2.08;;
43883;SDS011;71973;52.018;5.810;2023-09-19T04:14:46;6.65;;;2.05;;
43883;SDS011;71973;52.018;5.810;2023-09-19T04:17:12;7.30;;;2.47;;
43883;SDS011;71973;52.018;5.810;2023-09-19T04:19:38;5.70;;;1.70;;
43883;SDS011;71973;52.018;5.810;2023-09-19T04:22:05;7.38;;;2.35;;
43883;SDS011;71973;52.018;5.810;2023-09-19T04:26:58;7.28;;;1.73;;
43883;SDS011;71973;52.018;5.810;2023-09-19T04:29:24;6.47;;;2.10;;
43883;SDS011;71973;52.018;5.810;2023-09-19T04:31:54;6.07;;;1.92;;
43883;SDS011;71973;52.018;5.810;2023-09-19T04:34:21;5.43;;;1.75;;
43883;SDS011;71973;52.018;5.810;2023-09-19T04:36:48;6.65;;;1.83;;
43883;SDS011;71973;52.018;5.810;2023-09-19T04:39:14;5.55;;;1.92;;
43883;SDS011;71973;52.018;5.810;2023-09-19T04:41:41;6.13;;;1.80;;
43883;SDS011;71973;52.018;5.810;2023-09-19T04:44:07;5.43;;;1.92;;
43883;SDS011;71973;52.018;5.810;2023-09-19T04:46:34;7.20;;;1.92;;
43883;SDS011;71973;52.018;5.810;2023-09-19T04:49:00;7.78;;;2.53;;
43883;SDS011;71973;52.018;5.810;2023-09-19T04:53:55;5.05;;;1.80;;
43883;SDS011;71973;52.018;5.810;2023-09-19T04:56:21;4.70;;;1.73;;
43883;SDS011;71973;52.018;5.810;2023-09-19T04:58:48;5.03;;;1.73;;
43883;SDS011;71973;52.018;5.810;2023-09-19T05:01:14;5.75;;;2.03;;
43883;SDS011;71973;52.018;5.810;2023-09-19T05:03:40;5.05;;;1.55;;
43883;SDS011;71973;52.018;5.810;2023-09-19T05:06:07;4.30;;;1.80;;
43883;SDS011;71973;52.018;5.810;2023-09-19T05:08:33;6.32;;;1.92;;
43883;SDS011;71973;52.018;5.810;2023-09-19T05:11:01;8.05;;;1.90;;
43883;SDS011;71973;52.018;5.810;2023-09-19T05:13:27;6.00;;;2.05;;
43883;SDS011;71973;52.018;5.810;2023-09-19T05:15:53;6.85;;;2.20;;
43883;SDS011;71973;52.018;5.810;2023-09-19T05:18:19;5.07;;;1.95;;
43883;SDS011;71973;52.018;5.810;2023-09-19T05:20:46;4.78;;;1.77;;
43883;SDS011;71973;52.018;5.810;2023-09-19T05:23:13;6.63;;;2.25;;
43883;SDS011;71973;52.018;5.810;2023-09-19T05:25:39;6.85;;;2.10;;
43883;SDS011;71973;52.018;5.810;2023-09-19T05:30:32;5.40;;;1.80;;
43883;SDS011;71973;52.018;5.810;2023-09-19T05:32:58;8.40;;;1.88;;
43883;SDS011;71973;52.018;5.810;2023-09-19T05:35:24;8.43;;;1.85;;
43883;SDS011;71973;52.018;5.810;2023-09-19T05:37:53;4.95;;;1.50;;
43883;SDS011;71973;52.018;5.810;2023-09-19T05:40:20;6.05;;;1.80;;
43883;SDS011;71973;52.018;5.810;2023-09-19T05:42:47;6.00;;;1.90;;
43883;SDS011;71973;52.018;5.810;2023-09-19T05:45:13;5.32;;;1.60;;
43883;SDS011;71973;52.018;5.810;2023-09-19T05:47:44;4.35;;;1.63;;
43883;SDS011;71973;52.018;5.810;2023-09-19T05:50:10;5.70;;;1.63;;
43883;SDS011;71973;52.018;5.810;2023-09-19T05:52:37;5.90;;;1.90;;
43883;SDS011;71973;52.018;5.810;2023-09-19T05:55:04;4.28;;;1.70;;
43883;SDS011;71973;52.018;5.810;2023-09-19T05:57:31;5.65;;;2.05;;
43883;SDS011;71973;52.018;5.810;2023-09-19T05:59:57;6.35;;;2.40;;
43883;SDS011;71973;52.018;5.810;2023-09-19T06:02:23;7.43;;;2.08;;
43883;SDS011;71973;52.018;5.810;2023-09-19T06:04:53;4.78;;;1.83;;
43883;SDS011;71973;52.018;5.810;2023-09-19T06:07:20;6.40;;;2.22;;
43883;SDS011;71973;52.018;5.810;2023-09-19T06:09:47;6.32;;;2.03;;
43883;SDS011;71973;52.018;5.810;2023-09-19T06:12:13;5.80;;;2.03;;
43883;SDS011;71973;52.018;5.810;2023-09-19T06:14:42;8.30;;;2.70;;
43883;SDS011;71973;52.018;5.810;2023-09-19T06:17:08;4.18;;;2.03;;
43883;SDS011;71973;52.018;5.810;2023-09-19T06:19:34;7.22;;;1.95;;
43883;SDS011;71973;52.018;5.810;2023-09-19T06:22:00;7.45;;;2.10;;
43883;SDS011;71973;52.018;5.810;2023-09-19T06:24:26;7.88;;;2.00;;
43883;SDS011;71973;52.018;5.810;2023-09-19T06:26:52;5.82;;;1.98;;
43883;SDS011;71973;52.018;5.810;2023-09-19T06:29:18;5.22;;;1.80;;
43883;SDS011;71973;52.018;5.810;2023-09-19T06:31:45;6.57;;;1.95;;
43883;SDS011;71973;52.018;5.810;2023-09-19T06:34:12;3.75;;;1.70;;
43883;SDS011;71973;52.018;5.810;2023-09-19T06:36:40;6.00;;;1.55;;
43883;SDS011;71973;52.018;5.810;2023-09-19T06:39:06;4.45;;;1.58;;
43883;SDS011;71973;52.018;5.810;2023-09-19T06:41:35;7.18;;;1.90;;
43883;SDS011;71973;52.018;5.810;2023-09-19T06:44:01;8.98;;;2.17;;
43883;SDS011;71973;52.018;5.810;2023-09-19T06:46:27;6.78;;;1.63;;
43883;SDS011;71973;52.018;5.810;2023-09-19T06:48:57;6.80;;;1.90;;
43883;SDS011;71973;52.018;5.810;2023-09-19T06:51:23;8.90;;;2.30;;
43883;SDS011;71973;52.018;5.810;2023-09-19T06:53:49;6.30;;;2.15;;
43883;SDS011;71973;52.018;5.810;2023-09-19T06:56:19;7.55;;;2.13;;
43883;SDS011;71973;52.018;5.810;2023-09-19T06:58:48;10.68;;;2.55;;
43883;SDS011;71973;52.018;5.810;2023-09-19T07:01:14;13.98;;;2.97;;
43883;SDS011;71973;52.018;5.810;2023-09-19T07:03:40;8.38;;;2.40;;
43883;SDS011;71973;52.018;5.810;2023-09-19T07:06:06;8.18;;;2.60;;
43883;SDS011;71973;52.018;5.810;2023-09-19T07:08:33;10.25;;;2.30;;
43883;SDS011;71973;52.018;5.810;2023-09-19T07:10:59;10.00;;;2.85;;
43883;SDS011;71973;52.018;5.810;2023-09-19T07:13:25;10.20;;;2.60;;
43883;SDS011;71973;52.018;5.810;2023-09-19T07:15:51;11.45;;;2.88;;
43883;SDS011;71973;52.018;5.810;2023-09-19T07:18:17;6.90;;;2.60;;
43883;SDS011;71973;52.018;5.810;2023-09-19T07:20:43;10.45;;;2.97;;
43883;SDS011;71973;52.018;5.810;2023-09-19T07:23:17;7.75;;;2.35;;
43883;SDS011;71973;52.018;5.810;2023-09-19T07:25:43;9.93;;;3.03;;
43883;SDS011;71973;52.018;5.810;2023-09-19T07:28:09;12.60;;;3.10;;
43883;SDS011;71973;52.018;5.810;2023-09-19T07:30:38;10.07;;;2.38;;
43883;SDS011;71973;52.018;5.810;2023-09-19T07:33:07;12.23;;;3.20;;
43883;SDS011;71973;52.018;5.810;2023-09-19T07:35:36;8.90;;;2.72;;
43883;SDS011;71973;52.018;5.810;2023-09-19T07:38:04;10.55;;;3.05;;
43883;SDS011;71973;52.018;5.810;2023-09-19T07:40:30;8.90;;;2.75;;
43883;SDS011;71973;52.018;5.810;2023-09-19T07:42:56;11.20;;;2.67;;
43883;SDS011;71973;52.018;5.810;2023-09-19T07:45:26;9.25;;;2.83;;
43883;SDS011;71973;52.018;5.810;2023-09-19T07:47:52;13.32;;;3.38;;
43883;SDS011;71973;52.018;5.810;2023-09-19T07:50:18;10.25;;;2.83;;
43883;SDS011;71973;52.018;5.810;2023-09-19T07:52:48;13.48;;;3.22;;
43883;SDS011;71973;52.018;5.810;2023-09-19T07:55:15;15.27;;;3.05;;
43883;SDS011;71973;52.018;5.810;2023-09-19T07:57:42;13.25;;;2.65;;
43883;SDS011;71973;52.018;5.810;2023-09-19T08:02:37;15.15;;;2.95;;
43883;SDS011;71973;52.018;5.810;2023-09-19T08:05:03;12.10;;;3.08;;
43883;SDS011;71973;52.018;5.810;2023-09-19T08:07:35;12.02;;;3.00;;
43883;SDS011;71973;52.018;5.810;2023-09-19T08:12:27;11.55;;;3.00;;
43883;SDS011;71973;52.018;5.810;2023-09-19T08:14:53;15.63;;;3.42;;
43883;SDS011;71973;52.018;5.810;2023-09-19T08:17:20;11.48;;;3.25;;
43883;SDS011;71973;52.018;5.810;2023-09-19T08:19:47;14.02;;;3.50;;
43883;SDS011;71973;52.018;5.810;2023-09-19T08:22:14;11.65;;;3.17;;
43883;SDS011;71973;52.018;5.810;2023-09-19T08:24:42;12.20;;;3.05;;
43883;SDS011;71973;52.018;5.810;2023-09-19T08:27:08;12.15;;;3.20;;
43883;SDS011;71973;52.018;5.810;2023-09-19T08:29:35;8.63;;;2.90;;
43883;SDS011;71973;52.018;5.810;2023-09-19T08:32:01;13.63;;;2.95;;
43883;SDS011;71973;52.018;5.810;2023-09-19T08:34:27;11.93;;;3.28;;
43883;SDS011;71973;52.018;5.810;2023-09-19T08:36:57;13.27;;;2.97;;
43883;SDS011;71973;52.018;5.810;2023-09-19T08:39:24;10.95;;;2.85;;
43883;SDS011;71973;52.018;5.810;2023-09-19T08:41:57;11.10;;;2.80;;
43883;SDS011;71973;52.018;5.810;2023-09-19T08:44:26;12.15;;;3.05;;
43883;SDS011;71973;52.018;5.810;2023-09-19T08:46:55;9.68;;;2.55;;
43883;SDS011;71973;52.018;5.810;2023-09-19T08:52:22;10.52;;;2.63;;
43883;SDS011;71973;52.018;5.810;2023-09-19T08:54:51;11.55;;;3.17;;
43883;SDS011;71973;52.018;5.810;2023-09-19T08:57:18;11.52;;;3.03;;
43883;SDS011;71973;52.018;5.810;2023-09-19T08:59:47;16.65;;;3.22;;
43883;SDS011;71973;52.018;5.810;2023-09-19T09:02:14;10.65;;;3.00;;
43883;SDS011;71973;52.018;5.810;2023-09-19T09:04:41;10.63;;;3.80;;
43883;SDS011;71973;52.018;5.810;2023-09-19T09:07:13;10.35;;;3.10;;
43883;SDS011;71973;52.018;5.810;2023-09-19T09:09:40;15.23;;;3.83;;
43883;SDS011;71973;52.018;5.810;2023-09-19T09:12:08;12.52;;;3.03;;
43883;SDS011;71973;52.018;5.810;2023-09-19T09:14:34;10.55;;;3.03;;
43883;SDS011;71973;52.018;5.810;2023-09-19T09:17:00;12.05;;;3.38;;
43883;SDS011;71973;52.018;5.810;2023-09-19T09:19:27;10.93;;;2.92;;
43883;SDS011;71973;52.018;5.810;2023-09-19T09:21:53;16.48;;;3.17;;
43883;SDS011;71973;52.018;5.810;2023-09-19T09:26:54;12.68;;;3.28;;
43883;SDS011;71973;52.018;5.810;2023-09-19T09:32:39;11.07;;;2.38;;
43883;SDS011;71973;52.018;5.810;2023-09-19T09:35:00;8.70;;;3.08;;
43883;SDS011;71973;52.018;5.810;2023-09-19T09:39:58;13.50;;;2.90;;
43883;SDS011;71973;52.018;5.810;2023-09-19T09:42:43;12.88;;;3.00;;
43883;SDS011;71973;52.018;5.810;2023-09-19T09:45:16;16.52;;;3.45;;
43883;SDS011;71973;52.018;5.810;2023-09-19T09:50:22;12.77;;;2.90;;
43883;SDS011;71973;52.018;5.810;2023-09-19T09:52:54;9.52;;;3.00;;
43883;SDS011;71973;52.018;5.810;2023-09-19T09:55:25;10.93;;;3.42;;
43883;SDS011;71973;52.018;5.810;2023-09-19T09:58:15;10.32;;;3.22;;
43883;SDS011;71973;52.018;5.810;2023-09-19T10:01:03;13.80;;;2.50;;
43883;SDS011;71973;52.018;5.810;2023-09-19T10:03:34;13.52;;;3.28;;
43883;SDS011;71973;52.018;5.810;2023-09-19T10:06:04;11.93;;;3.00;;
43883;SDS011;71973;52.018;5.810;2023-09-19T10:11:42;10.52;;;2.92;;
43883;SDS011;71973;52.018;5.810;2023-09-19T10:14:09;10.63;;;2.72;;
43883;SDS011;71973;52.018;5.810;2023-09-19T10:16:37;12.27;;;3.28;;
43883;SDS011;71973;52.018;5.810;2023-09-19T10:19:06;12.23;;;3.25;;
43883;SDS011;71973;52.018;5.810;2023-09-19T10:21:34;8.40;;;2.53;;
43883;SDS011;71973;52.018;5.810;2023-09-19T10:24:01;11.88;;;3.28;;
43883;SDS011;71973;52.018;5.810;2023-09-19T10:26:33;11.05;;;2.63;;
43883;SDS011;71973;52.018;5.810;2023-09-19T10:29:01;16.38;;;3.90;;
43883;SDS011;71973;52.018;5.810;2023-09-19T10:31:32;8.68;;;2.80;;
43883;SDS011;71973;52.018;5.810;2023-09-19T10:34:00;13.15;;;3.10;;
43883;SDS011;71973;52.018;5.810;2023-09-19T10:36:29;13.65;;;2.92;;
43883;SDS011;71973;52.018;5.810;2023-09-19T10:39:01;12.23;;;2.92;;
43883;SDS011;71973;52.018;5.810;2023-09-19T10:41:31;10.75;;;2.67;;
43883;SDS011;71973;52.018;5.810;2023-09-19T10:43:59;10.73;;;3.13;;
43883;SDS011;71973;52.018;5.810;2023-09-19T10:46:28;9.40;;;2.63;;
43883;SDS011;71973;52.018;5.810;2023-09-19T10:51:24;11.52;;;2.78;;
43883;SDS011;71973;52.018;5.810;2023-09-19T10:54:01;13.07;;;2.80;;
43883;SDS011;71973;52.018;5.810;2023-09-19T10:56:35;9.85;;;2.60;;
43883;SDS011;71973;52.018;5.810;2023-09-19T10:59:08;11.60;;;2.53;;
43883;SDS011;71973;52.018;5.810;2023-09-19T11:01:45;13.18;;;2.88;;
43883;SDS011;71973;52.018;5.810;2023-09-19T11:04:22;9.85;;;2.53;;
43883;SDS011;71973;52.018;5.810;2023-09-19T11:06:59;13.88;;;2.97;;
43883;SDS011;71973;52.018;5.810;2023-09-19T11:09:25;12.03;;;3.53;;
43883;SDS011;71973;52.018;5.810;2023-09-19T11:12:08;12.05;;;2.88;;
43883;SDS011;71973;52.018;5.810;2023-09-19T11:14:40;11.07;;;2.67;;
43883;SDS011;71973;52.018;5.810;2023-09-19T11:22:24;13.05;;;2.58;;
43883;SDS011;71973;52.018;5.810;2023-09-19T11:24:51;14.77;;;2.85;;
43883;SDS011;71973;52.018;5.810;2023-09-19T11:27:21;9.57;;;2.35;;
43883;SDS011;71973;52.018;5.810;2023-09-19T11:29:46;13.80;;;2.53;;
43883;SDS011;71973;52.018;5.810;2023-09-19T11:32:14;14.10;;;3.00;;
43883;SDS011;71973;52.018;5.810;2023-09-19T11:34:42;13.43;;;2.30;;
43883;SDS011;71973;52.018;5.810;2023-09-19T11:42:43;11.77;;;3.47;;
43883;SDS011;71973;52.018;5.810;2023-09-19T11:48:14;10.10;;;2.08;;
43883;SDS011;71973;52.018;5.810;2023-09-19T11:50:44;9.52;;;2.33;;
43883;SDS011;71973;52.018;5.810;2023-09-19T11:53:12;11.43;;;2.67;;
43883;SDS011;71973;52.018;5.810;2023-09-19T11:58:06;9.75;;;2.30;;
43883;SDS011;71973;52.018;5.810;2023-09-19T12:00:32;5.97;;;2.03;;
43883;SDS011;71973;52.018;5.810;2023-09-19T12:03:00;10.93;;;2.70;;
43883;SDS011;71973;52.018;5.810;2023-09-19T12:05:31;9.00;;;2.00;;
43883;SDS011;71973;52.018;5.810;2023-09-19T12:07:58;9.48;;;2.30;;
43883;SDS011;71973;52.018;5.810;2023-09-19T12:10:24;11.30;;;2.95;;
43883;SDS011;71973;52.018;5.810;2023-09-19T12:12:51;9.07;;;2.38;;
43883;SDS011;71973;52.018;5.810;2023-09-19T12:15:24;6.97;;;1.95;;
43883;SDS011;71973;52.018;5.810;2023-09-19T12:17:53;8.82;;;2.20;;
43883;SDS011;71973;52.018;5.810;2023-09-19T12:20:19;13.30;;;3.45;;
43883;SDS011;71973;52.018;5.810;2023-09-19T12:22:46;5.57;;;1.58;;
43883;SDS011;71973;52.018;5.810;2023-09-19T12:25:15;10.18;;;2.60;;
43883;SDS011;71973;52.018;5.810;2023-09-19T12:30:09;6.35;;;1.85;;
43883;SDS011;71973;52.018;5.810;2023-09-19T12:32:35;10.02;;;2.10;;
43883;SDS011;71973;52.018;5.810;2023-09-19T12:35:04;8.48;;;2.10;;
43883;SDS011;71973;52.018;5.810;2023-09-19T12:37:35;8.13;;;1.90;;
43883;SDS011;71973;52.018;5.810;2023-09-19T12:40:05;6.32;;;1.95;;
43883;SDS011;71973;52.018;5.810;2023-09-19T12:42:47;8.13;;;2.30;;
43883;SDS011;71973;52.018;5.810;2023-09-19T12:47:40;7.53;;;1.77;;
43883;SDS011;71973;52.018;5.810;2023-09-19T12:50:14;5.68;;;1.70;;
43883;SDS011;71973;52.018;5.810;2023-09-19T12:52:47;9.48;;;2.00;;
43883;SDS011;71973;52.018;5.810;2023-09-19T12:55:20;12.95;;;2.53;;
43883;SDS011;71973;52.018;5.810;2023-09-19T13:00:34;7.88;;;2.15;;
43883;SDS011;71973;52.018;5.810;2023-09-19T13:03:17;6.43;;;1.55;;
43883;SDS011;71973;52.018;5.810;2023-09-19T13:06:00;6.10;;;1.60;;
43883;SDS011;71973;52.018;5.810;2023-09-19T13:08:32;5.72;;;1.63;;
43883;SDS011;71973;52.018;5.810;2023-09-19T13:13:40;6.60;;;1.50;;
43883;SDS011;71973;52.018;5.810;2023-09-19T13:16:06;5.32;;;1.50;;
43883;SDS011;71973;52.018;5.810;2023-09-19T13:21:33;8.13;;;1.48;;
43883;SDS011;71973;52.018;5.810;2023-09-19T13:26:33;5.35;;;1.50;;
43883;SDS011;71973;52.018;5.810;2023-09-19T13:29:00;5.40;;;1.40;;
43883;SDS011;71973;52.018;5.810;2023-09-19T13:31:26;5.78;;;1.98;;
43883;SDS011;71973;52.018;5.810;2023-09-19T13:33:52;9.32;;;1.67;;
43883;SDS011;71973;52.018;5.810;2023-09-19T13:36:18;4.45;;;1.23;;
43883;SDS011;71973;52.018;5.810;2023-09-19T13:38:44;5.20;;;1.27;;
43883;SDS011;71973;52.018;5.810;2023-09-19T13:41:13;8.02;;;1.88;;
43883;SDS011;71973;52.018;5.810;2023-09-19T13:43:39;5.53;;;1.80;;
43883;SDS011;71973;52.018;5.810;2023-09-19T13:46:05;4.15;;;1.30;;
43883;SDS011;71973;52.018;5.810;2023-09-19T13:48:40;7.55;;;1.48;;
43883;SDS011;71973;52.018;5.810;2023-09-19T13:51:06;7.05;;;1.83;;
43883;SDS011;71973;52.018;5.810;2023-09-19T13:53:32;6.15;;;1.35;;
43883;SDS011;71973;52.018;5.810;2023-09-19T13:55:57;8.10;;;2.13;;
43883;SDS011;71973;52.018;5.810;2023-09-19T13:58:23;6.75;;;1.83;;
43883;SDS011;71973;52.018;5.810;2023-09-19T14:00:50;4.75;;;1.50;;
43883;SDS011;71973;52.018;5.810;2023-09-19T14:03:16;8.88;;;1.30;;
43883;SDS011;71973;52.018;5.810;2023-09-19T14:05:41;6.13;;;1.48;;
43883;SDS011;71973;52.018;5.810;2023-09-19T14:08:08;4.47;;;1.23;;
43883;SDS011;71973;52.018;5.810;2023-09-19T14:10:34;4.72;;;1.33;;
43883;SDS011;71973;52.018;5.810;2023-09-19T14:13:00;4.80;;;1.25;;
43883;SDS011;71973;52.018;5.810;2023-09-19T14:15:26;4.13;;;1.10;;
43883;SDS011;71973;52.018;5.810;2023-09-19T14:17:56;4.45;;;0.93;;
43883;SDS011;71973;52.018;5.810;2023-09-19T14:22:48;5.50;;;1.38;;
43883;SDS011;71973;52.018;5.810;2023-09-19T14:25:14;5.78;;;1.65;;
43883;SDS011;71973;52.018;5.810;2023-09-19T14:27:40;3.85;;;1.25;;
43883;SDS011;71973;52.018;5.810;2023-09-19T14:30:06;4.47;;;1.40;;
43883;SDS011;71973;52.018;5.810;2023-09-19T14:32:34;5.68;;;1.40;;
43883;SDS011;71973;52.018;5.810;2023-09-19T14:35:01;4.45;;;1.65;;
43883;SDS011;71973;52.018;5.810;2023-09-19T14:37:27;4.60;;;1.30;;
43883;SDS011;71973;52.018;5.810;2023-09-19T14:42:19;4.30;;;1.50;;
43883;SDS011;71973;52.018;5.810;2023-09-19T14:44:45;4.18;;;1.10;;
43883;SDS011;71973;52.018;5.810;2023-09-19T14:47:13;7.28;;;1.27;;
43883;SDS011;71973;52.018;5.810;2023-09-19T14:49:39;4.18;;;1.65;;
43883;SDS011;71973;52.018;5.810;2023-09-19T14:52:08;5.60;;;1.52;;
43883;SDS011;71973;52.018;5.810;2023-09-19T14:54:35;3.67;;;1.17;;
43883;SDS011;71973;52.018;5.810;2023-09-19T14:57:02;3.53;;;1.33;;
43883;SDS011;71973;52.018;5.810;2023-09-19T15:01:55;4.25;;;1.40;;
43883;SDS011;71973;52.018;5.810;2023-09-19T15:04:21;5.00;;;1.00;;
43883;SDS011;71973;52.018;5.810;2023-09-19T15:06:47;5.88;;;1.10;;
43883;SDS011;71973;52.018;5.810;2023-09-19T15:09:13;4.88;;;1.30;;
43883;SDS011;71973;52.018;5.810;2023-09-19T15:14:06;4.88;;;1.10;;
43883;SDS011;71973;52.018;5.810;2023-09-19T15:16:31;6.18;;;1.45;;
43883;SDS011;71973;52.018;5.810;2023-09-19T15:18:58;4.63;;;1.30;;
43883;SDS011;71973;52.018;5.810;2023-09-19T15:21:23;4.03;;;1.27;;
43883;SDS011;71973;52.018;5.810;2023-09-19T15:23:49;3.35;;;1.08;;
43883;SDS011;71973;52.018;5.810;2023-09-19T15:26:15;3.50;;;1.10;;
43883;SDS011;71973;52.018;5.810;2023-09-19T15:28:45;5.82;;;1.52;;
43883;SDS011;71973;52.018;5.810;2023-09-19T15:31:11;6.57;;;1.35;;
43883;SDS011;71973;52.018;5.810;2023-09-19T15:33:38;5.63;;;1.27;;
43883;SDS011;71973;52.018;5.810;2023-09-19T15:36:05;5.38;;;1.30;;
43883;SDS011;71973;52.018;5.810;2023-09-19T15:38:31;4.07;;;1.10;;
43883;SDS011;71973;52.018;5.810;2023-09-19T15:43:24;3.63;;;0.95;;
43883;SDS011;71973;52.018;5.810;2023-09-19T15:45:50;6.60;;;1.23;;
43883;SDS011;71973;52.018;5.810;2023-09-19T15:48:16;4.13;;;0.98;;
43883;SDS011;71973;52.018;5.810;2023-09-19T15:50:43;3.38;;;0.93;;
43883;SDS011;71973;52.018;5.810;2023-09-19T15:53:09;3.50;;;1.13;;
43883;SDS011;71973;52.018;5.810;2023-09-19T15:55:40;5.70;;;1.25;;
43883;SDS011;71973;52.018;5.810;2023-09-19T15:58:06;4.07;;;1.48;;
43883;SDS011;71973;52.018;5.810;2023-09-19T16:00:32;3.35;;;1.05;;
43883;SDS011;71973;52.018;5.810;2023-09-19T16:03:01;7.75;;;1.40;;
43883;SDS011;71973;52.018;5.810;2023-09-19T16:07:53;3.30;;;1.00;;
43883;SDS011;71973;52.018;5.810;2023-09-19T16:10:19;5.43;;;1.08;;
43883;SDS011;71973;52.018;5.810;2023-09-19T16:12:46;3.65;;;1.17;;
43883;SDS011;71973;52.018;5.810;2023-09-19T16:15:12;3.42;;;1.13;;
43883;SDS011;71973;52.018;5.810;2023-09-19T16:17:40;4.82;;;1.50;;
43883;SDS011;71973;52.018;5.810;2023-09-19T16:20:06;4.75;;;1.30;;
43883;SDS011;71973;52.018;5.810;2023-09-19T16:24:59;5.75;;;1.40;;
43883;SDS011;71973;52.018;5.810;2023-09-19T16:27:25;5.00;;;1.55;;